Time;durP1;ratioP1;P1;durP2;ratioP2;P2;SDS_P1;SDS_P2;PMS_P1;PMS_P2;Temp;Humidity;BMP_temperature;BMP_pressure;BME280_temperature;BME280_humidity;BME280_pressure;Samples;Min_cycle;Max_cycle;Signal;HPM_P1;HPM_P2
2023/06/29 00:00:40;;;;;;;5.18;3.28;;;24.30;73.40;;;;;;5029926;28;20041;-78
2023/06/29 00:03:06;;;;;;;10.20;3.47;;;24.30;73.20;;;;;;5006475;28;20097;-78
2023/06/29 00:05:32;;;;;;;13.45;4.28;;;24.30;73.20;;;;;;5022273;28;20271;-78
2023/06/29 00:07:59;;;;;;;5.35;3.50;;;24.20;73.40;;;;;;5023911;28;20026;-78
2023/06/29 00:10:25;;;;;;;5.07;3.28;;;24.10;73.30;;;;;;5023897;28;20209;-79
2023/06/29 00:12:52;;;;;;;6.28;3.60;;;24.10;73.50;;;;;;5006322;28;20033;-79
2023/06/29 00:15:18;;;;;;;5.50;3.63;;;24.00;73.60;;;;;;5023813;28;20044;-79
2023/06/29 21:27:25;;;;;;;5.25;3.45;;;27.30;60.50;;;;;;5971177;23;20030;-84
2023/06/29 21:29:55;;;;;;;8.85;3.45;;;27.30;60.30;;;;;;4914244;29;20044;-84
2023/06/29 21:32:22;;;;;;;8.75;3.80;;;27.20;60.80;;;;;;4916366;29;20036;-84
2023/06/29 21:34:48;;;;;;;10.13;3.72;;;27.20;60.80;;;;;;4918303;29;20031;-84
2023/06/29 21:37:14;;;;;;;8.70;3.63;;;27.20;61.10;;;;;;4918843;29;20028;-84
2023/06/29 21:39:40;;;;;;;10.20;4.05;;;27.20;61.10;;;;;;4916371;29;20180;-83
2023/06/29 21:42:09;;;;;;;8.25;4.10;;;27.20;60.90;;;;;;4916657;29;20036;-82
2023/06/29 21:44:38;;;;;;;6.97;3.50;;;27.10;61.00;;;;;;4916126;29;20442;-84
2023/06/29 21:47:04;;;;;;;8.75;3.78;;;27.10;61.40;;;;;;4916277;29;20027;-82
2023/06/29 21:49:31;;;;;;;6.57;3.65;;;27.10;61.00;;;;;;4916652;29;20072;-82
2023/06/29 21:51:57;;;;;;;9.65;3.80;;;27.10;61.10;;;;;;4915627;29;20103;-83
2023/06/29 21:54:23;;;;;;;8.18;3.55;;;27.10;61.10;;;;;;4917861;29;20520;-82
2023/06/29 21:56:49;;;;;;;5.43;3.50;;;27.00;61.10;;;;;;4917583;29;20078;-82
2023/06/29 21:59:18;;;;;;;10.18;3.47;;;26.90;61.30;;;;;;4916548;29;20453;-84
2023/06/29 22:01:44;;;;;;;6.82;3.83;;;26.90;61.40;;;;;;4919558;29;20071;-84
2023/06/29 22:04:10;;;;;;;9.50;4.03;;;26.80;61.50;;;;;;4918335;29;20044;-84
2023/06/29 22:06:39;;;;;;;6.07;3.67;;;26.80;61.80;;;;;;4901098;29;20364;-84
2023/06/29 22:09:05;;;;;;;9.07;3.97;;;26.70;62.20;;;;;;4915683;29;20501;-83
2023/06/29 22:34:37;;;;;;;10.43;4.00;;;26.50;63.50;;;;;;4953315;28;20140;-84
2023/06/29 22:37:03;;;;;;;10.27;5.17;;;26.40;63.70;;;;;;4939763;29;20036;-84
2023/06/29 22:39:29;;;;;;;10.63;4.28;;;26.40;63.80;;;;;;4961739;29;20472;-84
2023/06/29 22:41:55;;;;;;;6.43;4.30;;;26.40;64.20;;;;;;4956610;29;20039;-84
2023/06/29 22:44:21;;;;;;;8.43;4.00;;;26.40;64.20;;;;;;4938780;29;20307;-84
2023/06/29 22:46:53;;;;;;;5.87;3.77;;;26.40;64.30;;;;;;4937768;29;20031;-83
2023/06/29 22:49:19;;;;;;;11.80;3.85;;;26.40;64.70;;;;;;4923075;29;20114;-84
2023/06/29 22:51:44;;;;;;;5.83;4.00;;;26.50;64.60;;;;;;4955658;29;20059;-84
2023/06/29 22:54:10;;;;;;;8.80;4.30;;;26.40;64.60;;;;;;4955591;29;20031;-84
2023/06/29 22:56:36;;;;;;;7.57;4.30;;;26.40;64.70;;;;;;4937942;29;20086;-84
2023/06/29 22:59:09;;;;;;;5.97;4.23;;;26.40;64.50;;;;;;4955030;29;20325;-83
2023/06/29 23:01:36;;;;;;;6.20;4.25;;;26.40;64.20;;;;;;4941502;29;20051;-83
2023/06/29 23:04:02;;;;;;;6.05;4.35;;;26.40;64.30;;;;;;4942738;29;20055;-83
2023/06/29 23:06:28;;;;;;;;;;;26.40;64.40;;;;;;4943726;29;20091;-82
2023/06/29 23:20:26;;;;;;;6.47;4.50;;;25.80;66.40;;;;;;4958323;29;20034;-83
2023/06/29 23:22:52;;;;;;;9.07;4.43;;;25.80;66.00;;;;;;4957882;29;20031;-83
2023/06/29 23:25:18;;;;;;;8.40;4.63;;;25.90;66.50;;;;;;4924977;29;20077;-83
2023/06/29 23:27:44;;;;;;;6.07;4.68;;;25.80;66.60;;;;;;4940162;29;20030;-84
2023/06/29 23:30:14;;;;;;;7.20;4.97;;;25.80;66.60;;;;;;4940286;29;20027;-83
2023/06/29 23:32:40;;;;;;;6.10;4.60;;;25.80;66.70;;;;;;4941145;29;20263;-84
2023/06/29 23:35:08;;;;;;;6.00;4.38;;;25.80;66.50;;;;;;4939876;29;20046;-83
2023/06/29 23:37:37;;;;;;;7.40;4.50;;;25.80;66.80;;;;;;4956369;29;20038;-83
2023/06/29 23:40:08;;;;;;;5.53;4.13;;;25.80;66.80;;;;;;4958199;29;20062;-84
2023/06/29 23:42:34;;;;;;;7.20;4.07;;;25.80;67.20;;;;;;4941093;29;20038;-83
2023/06/29 23:45:01;;;;;;;7.07;4.43;;;25.70;67.30;;;;;;4958032;29;20031;-83
2023/06/29 23:47:33;;;;;;;8.05;4.88;;;25.70;67.40;;;;;;4940998;29;20035;-83
2023/06/29 23:49:59;;;;;;;11.43;5.60;;;25.70;67.20;;;;;;4941004;29;20476;-83
2023/06/29 23:52:25;;;;;;;7.37;5.03;;;25.70;67.30;;;;;;4941197;29;20034;-83
2023/06/29 23:54:55;;;;;;;7.90;4.47;;;25.70;67.60;;;;;;4925256;29;20484;-83
2023/06/29 23:57:22;;;;;;;9.73;5.18;;;25.60;67.50;;;;;;4957753;29;20078;-83
2023/06/29 23:59:48;;;;;;;12.98;5.82;;;25.50;67.70;;;;;;4941256;29;20027;-83
